Estaciones Metar próximas

 

LELL - Sabadell, Spain
Distancia a la estación: E 18km
Actualizado: 03/02/2023 08:00
Despejado
Despejado
 Viento del varies
Viento: varies 4 km/h
Temperatura: 0°C
Rocío: -3°C
Humedad: 80%
Barómetro: 1030 hPa
Resumen: Despejado
Visibilidad: greater than 10 km
2023/02/03 07:00 LELL 030700Z VRB02KT CAVOK M00/M03 Q1030
LEBL - Barcelona Airpor, Spain
Distancia a la estación: SSE 33km
Actualizado: 03/02/2023 08:00
Despejado
Despejado
 Viento del NO
Viento: NO 22 km/h
Temperatura: 4°C
Sensación Térmica: -1°C
Rocío: -1°C
Humedad: 70%
Barómetro: 1030 hPa
Resumen: Despejado
Visibilidad: greater than 10 km
2023/02/03 07:00 LEBL 030700Z 32012KT CAVOK 04/M01 Q1030 NOSIG
LERS - Reus (civ/Mil), Spain
Distancia a la estación: SO 75km
Actualizado: 03/02/2023 08:00
Despejado
Despejado
 Viento del varies
Viento: varies 4 km/h
Temperatura: -1°C
Rocío: -4°C
Humedad: 80%
Barómetro: 1030 hPa
Resumen: Despejado
Visibilidad: greater than 10 km
2023/02/03 07:00 LERS 030700Z VRB02KT CAVOK M01/M04 Q1030
 
LEGE - Gerona/Costa Bra, Spain
Distancia a la estación: ENE 83km
Actualizado: 03/02/2023 08:00
Despejado
Despejado
 Viento del ONO
Viento: ONO 4 km/h
Temperatura: -2°C
Rocío: -3°C
Humedad: 93%
Barómetro: 1030 hPa
Resumen: Despejado
Visibilidad: greater than 10 km
2023/02/03 07:00 LEGE 030700Z 29002KT CAVOK M02/M03 Q1030
LFMP - Perpignan/Rivesa, France
Distancia a la estación: NNE 155km
Actualizado: 03/02/2023 08:00
Despejado
Despejado
 Viento del O
Viento: O 22 km/h
Temperatura: 10°C
Sensación Térmica: 7°C
Rocío: -3°C
Humedad: 40%
Barómetro: 1030 hPa
Resumen: Despejado
Visibilidad: greater than 10 km
2023/02/03 07:00 LFMP 030700Z AUTO 27012KT CAVOK 10/M03 Q1030 BECMG 31015G25KT
LFMK - Carcassonne/Salv, France
Distancia a la estación: N 191km
Actualizado: 03/02/2023 08:00
Despejado
Despejado
 Viento del OSO
Viento: OSO 20 km/h
Temperatura: 4°C
Sensación Térmica: -1°C
Rocío: 0°C
Humedad: 75%
Barómetro: 1034 hPa
Resumen: Despejado
Visibilidad: greater than 10 km
2023/02/03 07:00 LFMK 030700Z AUTO 25011KT 220V280 CAVOK 04/00 Q1034 NOSIG
 
LEHC - Huesca-Pirineos, Spain
Distancia a la estación: ONO 193km
Actualizado: 03/02/2023 08:00
Despejado
Despejado
 Viento del varies
Viento: varies 4 km/h
Temperatura: -1°C
Rocío: -2°C
Humedad: 93%
Barómetro: 1030 hPa
Resumen: Despejado
Visibilidad: greater than 10 km
2023/02/03 07:00 LEHC 030700Z AUTO VRB02KT CAVOK M01/M02 Q1030
LFMU - Beziers/Vias, France
Distancia a la estación: NNE 232km
Actualizado: 03/02/2023 08:00
Despejado
Despejado
 Viento del O
Viento: O 9 km/h
Temperatura: 3°C
Sensación Térmica: 0°C
Rocío: 0°C
Humedad: 81%
Barómetro: 1031 hPa
Resumen: Despejado
Visibilidad: greater than 10 km
2023/02/03 07:00 LFMU 030700Z AUTO 26005KT CAVOK 03/M00 Q1031 NOSIG
LEPA - Palma De Mallorc, Spain
Distancia a la estación: SSE 233km
Actualizado: 03/02/2023 08:00
Nubes dispersas
Nubes dispersas
 Viento del calm
Viento: Calma
Temperatura: 0°C
Rocío: 0°C
Humedad: 100%
Barómetro: 1030 hPa
Nubes: Nubes dispersas
Visibilidad: 10 km
Detalle Nubes: Nubes dispersas 762 m
2023/02/03 07:00 LEPA 030700Z 00000KT 9999 FEW025 M00/M00 Q1030 NOSIG
 
LFBO - Toulouse/Blagnac, France
Distancia a la estación: N 236km
Actualizado: 03/02/2023 08:00
Despejado
Despejado
 Viento del SSO
Viento: SSO 9 km/h
Temperatura: -2°C
Sensación Térmica: -6°C
Rocío: -3°C
Humedad: 93%
Barómetro: 1035 hPa
Resumen: Despejado
Visibilidad: greater than 10 km
2023/02/03 07:00 LFBO 030700Z AUTO 20005KT CAVOK M02/M03 Q1035 NOSIG
LFBT - Tarbes/Ossun, France
Distancia a la estación: NO 239km
Actualizado: 03/02/2023 08:00
Despejado
Despejado
 Viento del varies
Viento: varies 4 km/h
Temperatura: -2°C
Rocío: -3°C
Humedad: 93%
Barómetro: 1034 hPa
Resumen: Despejado
Visibilidad: greater than 10 km
2023/02/03 07:00 LFBT 030700Z AUTO VRB02KT CAVOK M02/M03 Q1034 NOSIG
LEZG - Zaragoza (mil/Ci, Spain
Distancia a la estación: O 242km
Actualizado: 03/02/2023 08:00
Despejado
Despejado
 Viento del E
Viento: E 2 km/h
Temperatura: -1°C
Rocío: -2°C
Humedad: 93%
Barómetro: 1032 hPa
Resumen: Despejado
Visibilidad: greater than 10 km
2023/02/03 07:00 LEZG 030700Z 08001KT CAVOK M01/M02 Q1032